sensor_id;sensor_type;location;lat;lon;timestamp;temperature;humidity
12602;DHT22;30282;16.436;99.370;2023-02-18T00:01:10;23.10;99.90
12602;DHT22;30282;16.436;99.370;2023-02-18T00:03:40;23.00;99.90
12602;DHT22;30282;16.436;99.370;2023-02-18T00:06:13;23.00;99.90
12602;DHT22;30282;16.436;99.370;2023-02-18T00:08:42;22.90;99.90
12602;DHT22;30282;16.436;99.370;2023-02-18T00:11:12;22.90;99.90
12602;DHT22;30282;16.436;99.370;2023-02-18T00:13:42;22.90;99.90
12602;DHT22;30282;16.436;99.370;2023-02-18T00:16:12;22.90;99.90
12602;DHT22;30282;16.436;99.370;2023-02-18T00:18:41;22.90;99.90
12602;DHT22;30282;16.436;99.370;2023-02-18T00:21:10;22.80;99.90
12602;DHT22;30282;16.436;99.370;2023-02-18T00:23:39;22.70;99.90
12602;DHT22;30282;16.436;99.370;2023-02-18T00:26:09;22.60;99.90
12602;DHT22;30282;16.436;99.370;2023-02-18T00:28:39;22.60;99.90
12602;DHT22;30282;16.436;99.370;2023-02-18T00:31:09;22.50;99.90
12602;DHT22;30282;16.436;99.370;2023-02-18T00:33:40;22.50;99.90
12602;DHT22;30282;16.436;99.370;2023-02-18T00:36:13;22.50;99.90
12602;DHT22;30282;16.436;99.370;2023-02-18T00:38:44;22.40;99.90
12602;DHT22;30282;16.436;99.370;2023-02-18T00:41:13;22.20;99.90
12602;DHT22;30282;16.436;99.370;2023-02-18T00:43:42;22.10;99.90
12602;DHT22;30282;16.436;99.370;2023-02-18T00:46:11;22.10;99.90
12602;DHT22;30282;16.436;99.370;2023-02-18T00:48:43;22.20;99.90
12602;DHT22;30282;16.436;99.370;2023-02-18T00:51:12;22.20;99.90
12602;DHT22;30282;16.436;99.370;2023-02-18T00:53:41;22.10;99.90
12602;DHT22;30282;16.436;99.370;2023-02-18T00:56:10;22.10;99.90
12602;DHT22;30282;16.436;99.370;2023-02-18T00:58:39;22.00;99.90
12602;DHT22;30282;16.436;99.370;2023-02-18T01:01:09;21.90;99.90
12602;DHT22;30282;16.436;99.370;2023-02-18T01:03:39;21.90;99.90
12602;DHT22;30282;16.436;99.370;2023-02-18T01:06:11;22.00;99.90
12602;DHT22;30282;16.436;99.370;2023-02-18T01:08:40;22.10;99.90
12602;DHT22;30282;16.436;99.370;2023-02-18T01:11:10;22.20;99.90
12602;DHT22;30282;16.436;99.370;2023-02-18T01:13:39;22.20;99.90
12602;DHT22;30282;16.436;99.370;2023-02-18T01:16:09;22.30;99.90
12602;DHT22;30282;16.436;99.370;2023-02-18T01:18:38;22.30;99.90
12602;DHT22;30282;16.436;99.370;2023-02-18T01:21:10;22.30;99.90
12602;DHT22;30282;16.436;99.370;2023-02-18T01:23:40;22.20;99.90
12602;DHT22;30282;16.436;99.370;2023-02-18T01:26:10;22.20;99.90
12602;DHT22;30282;16.436;99.370;2023-02-18T01:28:39;22.20;99.90
12602;DHT22;30282;16.436;99.370;2023-02-18T01:31:09;22.20;99.90
12602;DHT22;30282;16.436;99.370;2023-02-18T01:33:39;22.10;99.90
12602;DHT22;30282;16.436;99.370;2023-02-18T01:36:10;21.90;99.90
12602;DHT22;30282;16.436;99.370;2023-02-18T01:38:42;21.90;99.90
12602;DHT22;30282;16.436;99.370;2023-02-18T01:41:11;21.80;99.90
12602;DHT22;30282;16.436;99.370;2023-02-18T01:43:40;21.80;99.90
12602;DHT22;30282;16.436;99.370;2023-02-18T01:46:16;21.80;99.90
12602;DHT22;30282;16.436;99.370;2023-02-18T01:48:48;21.90;99.90
12602;DHT22;30282;16.436;99.370;2023-02-18T01:51:23;22.00;99.90
12602;DHT22;30282;16.436;99.370;2023-02-18T01:53:55;22.10;99.90
12602;DHT22;30282;16.436;99.370;2023-02-18T01:56:28;22.20;99.90
12602;DHT22;30282;16.436;99.370;2023-02-18T01:59:00;22.30;99.90
12602;DHT22;30282;16.436;99.370;2023-02-18T02:01:32;22.30;99.90
12602;DHT22;30282;16.436;99.370;2023-02-18T02:04:01;22.40;99.90
12602;DHT22;30282;16.436;99.370;2023-02-18T02:06:33;22.50;99.90
12602;DHT22;30282;16.436;99.370;2023-02-18T02:09:06;22.50;99.90
12602;DHT22;30282;16.436;99.370;2023-02-18T02:11:50;22.50;99.90
12602;DHT22;30282;16.436;99.370;2023-02-18T02:14:39;22.50;99.90
12602;DHT22;30282;16.436;99.370;2023-02-18T02:17:12;22.60;99.90
12602;DHT22;30282;16.436;99.370;2023-02-18T02:20:16;22.60;99.90
12602;DHT22;30282;16.436;99.370;2023-02-18T02:23:18;22.60;99.90
12602;DHT22;30282;16.436;99.370;2023-02-18T02:26:29;22.60;99.90
12602;DHT22;30282;16.436;99.370;2023-02-18T02:29:38;22.60;99.90
12602;DHT22;30282;16.436;99.370;2023-02-18T02:32:34;22.60;99.90
12602;DHT22;30282;16.436;99.370;2023-02-18T02:35:09;22.60;99.90
12602;DHT22;30282;16.436;99.370;2023-02-18T02:37:44;22.70;99.90
12602;DHT22;30282;16.436;99.370;2023-02-18T02:40:26;22.70;99.90
12602;DHT22;30282;16.436;99.370;2023-02-18T02:43:05;22.70;99.90
12602;DHT22;30282;16.436;99.370;2023-02-18T02:45:48;22.80;99.90
12602;DHT22;30282;16.436;99.370;2023-02-18T02:48:27;22.80;99.90
12602;DHT22;30282;16.436;99.370;2023-02-18T02:51:04;22.80;99.90
12602;DHT22;30282;16.436;99.370;2023-02-18T02:53:36;22.90;99.90
12602;DHT22;30282;16.436;99.370;2023-02-18T02:56:12;22.90;99.90
12602;DHT22;30282;16.436;99.370;2023-02-18T02:58:42;22.90;99.90
12602;DHT22;30282;16.436;99.370;2023-02-18T03:01:23;22.90;99.90
12602;DHT22;30282;16.436;99.370;2023-02-18T03:04:12;22.90;99.90
12602;DHT22;30282;16.436;99.370;2023-02-18T03:07:08;22.90;99.90
12602;DHT22;30282;16.436;99.370;2023-02-18T03:09:50;22.90;99.90
12602;DHT22;30282;16.436;99.370;2023-02-18T03:12:31;22.90;99.90
12602;DHT22;30282;16.436;99.370;2023-02-18T03:15:07;22.80;99.90
12602;DHT22;30282;16.436;99.370;2023-02-18T03:17:44;22.80;99.90
12602;DHT22;30282;16.436;99.370;2023-02-18T03:20:21;22.80;99.90
12602;DHT22;30282;16.436;99.370;2023-02-18T03:22:54;22.90;99.90
12602;DHT22;30282;16.436;99.370;2023-02-18T03:25:24;23.00;99.90
12602;DHT22;30282;16.436;99.370;2023-02-18T03:27:55;23.00;99.90
12602;DHT22;30282;16.436;99.370;2023-02-18T03:30:29;22.90;99.90
12602;DHT22;30282;16.436;99.370;2023-02-18T03:33:02;23.00;99.90
12602;DHT22;30282;16.436;99.370;2023-02-18T03:35:31;23.10;99.90
12602;DHT22;30282;16.436;99.370;2023-02-18T03:38:05;23.20;99.90
12602;DHT22;30282;16.436;99.370;2023-02-18T03:40:36;23.40;99.90
12602;DHT22;30282;16.436;99.370;2023-02-18T03:43:06;23.50;99.90
12602;DHT22;30282;16.436;99.370;2023-02-18T03:45:37;23.60;99.90
12602;DHT22;30282;16.436;99.370;2023-02-18T03:48:07;23.60;99.90
12602;DHT22;30282;16.436;99.370;2023-02-18T03:50:36;23.70;99.90
12602;DHT22;30282;16.436;99.370;2023-02-18T03:53:06;23.80;99.90
12602;DHT22;30282;16.436;99.370;2023-02-18T03:55:35;23.70;99.90
12602;DHT22;30282;16.436;99.370;2023-02-18T03:58:04;23.80;99.90
12602;DHT22;30282;16.436;99.370;2023-02-18T04:00:33;23.80;99.90
12602;DHT22;30282;16.436;99.370;2023-02-18T04:03:02;23.90;99.90
12602;DHT22;30282;16.436;99.370;2023-02-18T04:05:31;24.00;99.90
12602;DHT22;30282;16.436;99.370;2023-02-18T04:08:00;24.00;99.90
12602;DHT22;30282;16.436;99.370;2023-02-18T04:10:30;24.10;99.90
12602;DHT22;30282;16.436;99.370;2023-02-18T04:12:59;24.00;99.90
12602;DHT22;30282;16.436;99.370;2023-02-18T04:15:28;24.00;99.90
12602;DHT22;30282;16.436;99.370;2023-02-18T04:17:57;23.90;99.90
12602;DHT22;30282;16.436;99.370;2023-02-18T04:20:26;23.80;99.90
12602;DHT22;30282;16.436;99.370;2023-02-18T04:22:55;23.80;99.90
12602;DHT22;30282;16.436;99.370;2023-02-18T04:25:24;23.80;99.90
12602;DHT22;30282;16.436;99.370;2023-02-18T04:27:56;23.90;99.90
12602;DHT22;30282;16.436;99.370;2023-02-18T04:30:25;24.00;99.90
12602;DHT22;30282;16.436;99.370;2023-02-18T04:32:54;24.00;99.90
12602;DHT22;30282;16.436;99.370;2023-02-18T04:35:23;24.00;99.90
12602;DHT22;30282;16.436;99.370;2023-02-18T04:37:52;24.00;99.90
12602;DHT22;30282;16.436;99.370;2023-02-18T04:40:21;24.00;99.90
12602;DHT22;30282;16.436;99.370;2023-02-18T04:42:51;24.10;99.90
12602;DHT22;30282;16.436;99.370;2023-02-18T04:45:24;24.10;99.90
12602;DHT22;30282;16.436;99.370;2023-02-18T04:47:57;24.10;99.90
12602;DHT22;30282;16.436;99.370;2023-02-18T04:50:28;24.10;99.90
12602;DHT22;30282;16.436;99.370;2023-02-18T04:53:00;24.10;99.90
12602;DHT22;30282;16.436;99.370;2023-02-18T04:55:29;24.10;99.90
12602;DHT22;30282;16.436;99.370;2023-02-18T04:58:01;24.20;99.90
12602;DHT22;30282;16.436;99.370;2023-02-18T05:00:35;24.30;99.90
12602;DHT22;30282;16.436;99.370;2023-02-18T05:03:04;24.40;99.90
12602;DHT22;30282;16.436;99.370;2023-02-18T05:05:32;24.40;99.90
12602;DHT22;30282;16.436;99.370;2023-02-18T05:08:01;24.40;99.90
12602;DHT22;30282;16.436;99.370;2023-02-18T05:10:30;24.50;99.90
12602;DHT22;30282;16.436;99.370;2023-02-18T05:13:00;24.50;99.90
12602;DHT22;30282;16.436;99.370;2023-02-18T05:15:34;24.60;99.90
12602;DHT22;30282;16.436;99.370;2023-02-18T05:18:07;24.60;99.90
12602;DHT22;30282;16.436;99.370;2023-02-18T05:20:36;24.70;99.90
12602;DHT22;30282;16.436;99.370;2023-02-18T05:23:05;24.70;99.90
12602;DHT22;30282;16.436;99.370;2023-02-18T05:25:34;24.90;99.90
12602;DHT22;30282;16.436;99.370;2023-02-18T05:28:06;24.90;99.90
12602;DHT22;30282;16.436;99.370;2023-02-18T05:30:35;25.00;99.90
12602;DHT22;30282;16.436;99.370;2023-02-18T05:33:06;25.10;99.90
12602;DHT22;30282;16.436;99.370;2023-02-18T05:35:37;25.20;99.90
12602;DHT22;30282;16.436;99.370;2023-02-18T05:38:06;25.20;99.90
12602;DHT22;30282;16.436;99.370;2023-02-18T05:40:35;25.20;99.90
12602;DHT22;30282;16.436;99.370;2023-02-18T05:43:04;25.20;99.90
12602;DHT22;30282;16.436;99.370;2023-02-18T05:45:33;25.20;99.90
12602;DHT22;30282;16.436;99.370;2023-02-18T05:48:03;25.20;99.90
12602;DHT22;30282;16.436;99.370;2023-02-18T05:50:34;25.20;99.90
12602;DHT22;30282;16.436;99.370;2023-02-18T05:53:03;25.20;99.90
12602;DHT22;30282;16.436;99.370;2023-02-18T05:55:32;25.10;99.90
12602;DHT22;30282;16.436;99.370;2023-02-18T05:58:04;25.20;99.90
12602;DHT22;30282;16.436;99.370;2023-02-18T06:00:33;25.30;99.90
12602;DHT22;30282;16.436;99.370;2023-02-18T06:03:02;25.30;99.90
12602;DHT22;30282;16.436;99.370;2023-02-18T06:05:36;25.40;99.90
12602;DHT22;30282;16.436;99.370;2023-02-18T06:08:08;25.40;99.90
12602;DHT22;30282;16.436;99.370;2023-02-18T06:10:38;25.50;99.90
12602;DHT22;30282;16.436;99.370;2023-02-18T06:13:07;25.50;99.90
12602;DHT22;30282;16.436;99.370;2023-02-18T06:15:36;25.40;99.90
12602;DHT22;30282;16.436;99.370;2023-02-18T06:18:06;25.50;99.90
12602;DHT22;30282;16.436;99.370;2023-02-18T06:20:37;25.50;99.90
12602;DHT22;30282;16.436;99.370;2023-02-18T06:23:07;25.60;99.90
12602;DHT22;30282;16.436;99.370;2023-02-18T06:25:36;25.70;99.90
12602;DHT22;30282;16.436;99.370;2023-02-18T06:28:05;25.90;99.90
12602;DHT22;30282;16.436;99.370;2023-02-18T06:30:34;26.00;99.90
12602;DHT22;30282;16.436;99.370;2023-02-18T06:33:05;26.00;99.90
12602;DHT22;30282;16.436;99.370;2023-02-18T06:35:34;26.00;99.90
12602;DHT22;30282;16.436;99.370;2023-02-18T06:38:05;26.00;99.90
12602;DHT22;30282;16.436;99.370;2023-02-18T06:40:34;26.10;99.90
12602;DHT22;30282;16.436;99.370;2023-02-18T06:43:03;26.10;99.90
12602;DHT22;30282;16.436;99.370;2023-02-18T06:45:31;26.10;99.90
12602;DHT22;30282;16.436;99.370;2023-02-18T06:48:01;26.20;99.90
12602;DHT22;30282;16.436;99.370;2023-02-18T06:50:29;26.20;99.90
12602;DHT22;30282;16.436;99.370;2023-02-18T06:52:59;26.20;99.90
12602;DHT22;30282;16.436;99.370;2023-02-18T06:55:29;26.30;99.90
12602;DHT22;30282;16.436;99.370;2023-02-18T06:57:58;26.40;99.90
12602;DHT22;30282;16.436;99.370;2023-02-18T07:00:27;26.40;99.90
12602;DHT22;30282;16.436;99.370;2023-02-18T07:02:56;26.50;99.90
12602;DHT22;30282;16.436;99.370;2023-02-18T07:05:28;26.50;99.90
12602;DHT22;30282;16.436;99.370;2023-02-18T07:07:58;26.60;99.90
12602;DHT22;30282;16.436;99.370;2023-02-18T07:10:28;26.60;99.90
12602;DHT22;30282;16.436;99.370;2023-02-18T07:12:57;26.70;99.90
12602;DHT22;30282;16.436;99.370;2023-02-18T07:15:29;26.70;99.90
12602;DHT22;30282;16.436;99.370;2023-02-18T07:17:58;26.80;99.90
12602;DHT22;30282;16.436;99.370;2023-02-18T07:20:29;26.70;99.90
12602;DHT22;30282;16.436;99.370;2023-02-18T07:22:58;26.70;99.90
12602;DHT22;30282;16.436;99.370;2023-02-18T07:25:29;26.80;99.90
12602;DHT22;30282;16.436;99.370;2023-02-18T07:27:58;26.90;99.90
12602;DHT22;30282;16.436;99.370;2023-02-18T07:30:27;27.00;99.90
12602;DHT22;30282;16.436;99.370;2023-02-18T07:32:56;27.00;99.90
12602;DHT22;30282;16.436;99.370;2023-02-18T07:35:25;27.10;99.90
12602;DHT22;30282;16.436;99.370;2023-02-18T07:37:54;27.10;99.90
12602;DHT22;30282;16.436;99.370;2023-02-18T07:40:23;27.10;99.90
12602;DHT22;30282;16.436;99.370;2023-02-18T07:42:54;27.20;99.90
12602;DHT22;30282;16.436;99.370;2023-02-18T07:45:23;27.20;99.90
12602;DHT22;30282;16.436;99.370;2023-02-18T07:47:52;27.20;99.90
12602;DHT22;30282;16.436;99.370;2023-02-18T07:50:21;27.20;99.90
12602;DHT22;30282;16.436;99.370;2023-02-18T07:52:53;27.30;99.90
12602;DHT22;30282;16.436;99.370;2023-02-18T07:55:25;27.30;99.90
12602;DHT22;30282;16.436;99.370;2023-02-18T07:58:15;27.40;99.90
12602;DHT22;30282;16.436;99.370;2023-02-18T08:00:45;27.50;99.90
12602;DHT22;30282;16.436;99.370;2023-02-18T08:03:15;27.60;99.90
12602;DHT22;30282;16.436;99.370;2023-02-18T08:05:44;27.60;99.90
12602;DHT22;30282;16.436;99.370;2023-02-18T08:08:14;27.60;99.90
12602;DHT22;30282;16.436;99.370;2023-02-18T08:10:44;27.60;99.90
12602;DHT22;30282;16.436;99.370;2023-02-18T08:13:14;27.60;99.90
12602;DHT22;30282;16.436;99.370;2023-02-18T08:15:43;27.60;99.90
12602;DHT22;30282;16.436;99.370;2023-02-18T08:18:16;27.60;99.90
12602;DHT22;30282;16.436;99.370;2023-02-18T08:20:45;27.60;99.90
12602;DHT22;30282;16.436;99.370;2023-02-18T08:23:15;27.60;99.90
12602;DHT22;30282;16.436;99.370;2023-02-18T08:25:45;27.60;99.90
12602;DHT22;30282;16.436;99.370;2023-02-18T08:28:17;27.60;99.90
12602;DHT22;30282;16.436;99.370;2023-02-18T08:30:46;27.50;99.90
12602;DHT22;30282;16.436;99.370;2023-02-18T08:33:16;27.50;99.90
12602;DHT22;30282;16.436;99.370;2023-02-18T08:35:52;27.40;99.90
12602;DHT22;30282;16.436;99.370;2023-02-18T08:38:25;27.40;99.90
12602;DHT22;30282;16.436;99.370;2023-02-18T08:41:01;27.40;99.90
12602;DHT22;30282;16.436;99.370;2023-02-18T08:43:34;27.40;99.90
12602;DHT22;30282;16.436;99.370;2023-02-18T08:46:04;27.40;99.90
12602;DHT22;30282;16.436;99.370;2023-02-18T08:48:33;27.30;99.90
12602;DHT22;30282;16.436;99.370;2023-02-18T08:51:11;27.30;99.90
12602;DHT22;30282;16.436;99.370;2023-02-18T08:53:41;27.30;99.90
12602;DHT22;30282;16.436;99.370;2023-02-18T08:56:10;27.30;99.90
12602;DHT22;30282;16.436;99.370;2023-02-18T08:58:44;27.30;99.90
12602;DHT22;30282;16.436;99.370;2023-02-18T09:01:13;27.30;99.90
12602;DHT22;30282;16.436;99.370;2023-02-18T09:03:42;27.40;99.90
12602;DHT22;30282;16.436;99.370;2023-02-18T09:06:17;27.40;99.90
12602;DHT22;30282;16.436;99.370;2023-02-18T09:08:46;27.50;99.90
12602;DHT22;30282;16.436;99.370;2023-02-18T09:11:16;27.50;99.90
12602;DHT22;30282;16.436;99.370;2023-02-18T09:13:47;27.50;99.90
12602;DHT22;30282;16.436;99.370;2023-02-18T09:16:17;27.50;99.90
12602;DHT22;30282;16.436;99.370;2023-02-18T09:18:47;27.50;99.90
12602;DHT22;30282;16.436;99.370;2023-02-18T09:21:16;27.50;99.90
12602;DHT22;30282;16.436;99.370;2023-02-18T09:23:46;27.50;99.90
12602;DHT22;30282;16.436;99.370;2023-02-18T09:26:17;27.50;99.90
12602;DHT22;30282;16.436;99.370;2023-02-18T09:28:49;27.50;99.90
12602;DHT22;30282;16.436;99.370;2023-02-18T09:31:21;27.50;99.90
12602;DHT22;30282;16.436;99.370;2023-02-18T09:33:53;27.50;99.90
12602;DHT22;30282;16.436;99.370;2023-02-18T09:36:22;27.50;99.90
12602;DHT22;30282;16.436;99.370;2023-02-18T09:38:51;27.50;99.90
12602;DHT22;30282;16.436;99.370;2023-02-18T09:41:27;27.50;99.90
12602;DHT22;30282;16.436;99.370;2023-02-18T09:44:01;27.40;99.90
12602;DHT22;30282;16.436;99.370;2023-02-18T09:46:33;27.40;99.90
12602;DHT22;30282;16.436;99.370;2023-02-18T09:49:06;27.40;99.90
12602;DHT22;30282;16.436;99.370;2023-02-18T09:51:37;27.40;99.90
12602;DHT22;30282;16.436;99.370;2023-02-18T09:54:08;27.50;99.90
12602;DHT22;30282;16.436;99.370;2023-02-18T09:56:38;27.50;99.90
12602;DHT22;30282;16.436;99.370;2023-02-18T09:59:13;27.50;99.90
12602;DHT22;30282;16.436;99.370;2023-02-18T10:01:44;27.40;99.90
12602;DHT22;30282;16.436;99.370;2023-02-18T10:04:16;27.50;99.90
12602;DHT22;30282;16.436;99.370;2023-02-18T10:06:50;27.50;99.90
12602;DHT22;30282;16.436;99.370;2023-02-18T10:09:21;27.50;99.90
12602;DHT22;30282;16.436;99.370;2023-02-18T10:11:57;27.50;99.90
12602;DHT22;30282;16.436;99.370;2023-02-18T10:14:28;27.50;99.90
12602;DHT22;30282;16.436;99.370;2023-02-18T10:17:00;27.50;99.90
12602;DHT22;30282;16.436;99.370;2023-02-18T10:19:30;27.50;99.90
12602;DHT22;30282;16.436;99.370;2023-02-18T10:22:01;27.50;99.90
12602;DHT22;30282;16.436;99.370;2023-02-18T10:24:34;27.50;99.90
12602;DHT22;30282;16.436;99.370;2023-02-18T10:27:06;27.50;99.90
12602;DHT22;30282;16.436;99.370;2023-02-18T10:29:37;27.50;99.90
12602;DHT22;30282;16.436;99.370;2023-02-18T10:32:22;27.50;99.90
12602;DHT22;30282;16.436;99.370;2023-02-18T10:34:53;27.50;99.90
12602;DHT22;30282;16.436;99.370;2023-02-18T10:37:37;27.50;99.90
12602;DHT22;30282;16.436;99.370;2023-02-18T10:40:15;27.50;99.90
12602;DHT22;30282;16.436;99.370;2023-02-18T10:42:58;27.40;99.90
12602;DHT22;30282;16.436;99.370;2023-02-18T10:45:40;27.40;99.90
12602;DHT22;30282;16.436;99.370;2023-02-18T10:48:35;27.40;99.90
12602;DHT22;30282;16.436;99.370;2023-02-18T10:51:13;27.30;99.90
12602;DHT22;30282;16.436;99.370;2023-02-18T10:53:47;27.40;99.90
12602;DHT22;30282;16.436;99.370;2023-02-18T10:56:38;27.30;99.90
12602;DHT22;30282;16.436;99.370;2023-02-18T10:59:12;27.30;99.90
12602;DHT22;30282;16.436;99.370;2023-02-18T11:01:43;27.20;99.90
12602;DHT22;30282;16.436;99.370;2023-02-18T11:04:15;27.20;99.90
12602;DHT22;30282;16.436;99.370;2023-02-18T11:06:48;27.20;99.90
12602;DHT22;30282;16.436;99.370;2023-02-18T11:09:38;27.10;99.90
12602;DHT22;30282;16.436;99.370;2023-02-18T11:12:14;27.10;99.90
12602;DHT22;30282;16.436;99.370;2023-02-18T11:14:47;27.00;99.90
12602;DHT22;30282;16.436;99.370;2023-02-18T11:17:21;27.00;99.90
12602;DHT22;30282;16.436;99.370;2023-02-18T11:19:55;26.90;99.90
12602;DHT22;30282;16.436;99.370;2023-02-18T11:22:30;26.80;99.90
12602;DHT22;30282;16.436;99.370;2023-02-18T11:25:00;26.70;99.90
12602;DHT22;30282;16.436;99.370;2023-02-18T11:27:37;26.60;99.90
12602;DHT22;30282;16.436;99.370;2023-02-18T11:30:18;26.60;99.90
12602;DHT22;30282;16.436;99.370;2023-02-18T11:32:52;26.50;99.90
12602;DHT22;30282;16.436;99.370;2023-02-18T11:35:23;26.40;99.90
12602;DHT22;30282;16.436;99.370;2023-02-18T11:37:53;26.30;99.90
12602;DHT22;30282;16.436;99.370;2023-02-18T11:40:24;26.20;99.90
12602;DHT22;30282;16.436;99.370;2023-02-18T11:43:03;26.10;99.90
12602;DHT22;30282;16.436;99.370;2023-02-18T11:45:33;26.00;99.90
12602;DHT22;30282;16.436;99.370;2023-02-18T11:48:07;26.00;99.90
12602;DHT22;30282;16.436;99.370;2023-02-18T11:50:37;25.90;99.90
12602;DHT22;30282;16.436;99.370;2023-02-18T11:53:26;25.90;99.90
12602;DHT22;30282;16.436;99.370;2023-02-18T11:55:57;25.80;99.90
12602;DHT22;30282;16.436;99.370;2023-02-18T11:58:36;25.80;99.90
12602;DHT22;30282;16.436;99.370;2023-02-18T12:01:09;25.70;99.90
12602;DHT22;30282;16.436;99.370;2023-02-18T12:03:46;25.70;99.90
12602;DHT22;30282;16.436;99.370;2023-02-18T12:06:21;25.60;99.90
12602;DHT22;30282;16.436;99.370;2023-02-18T12:08:54;25.60;99.90
12602;DHT22;30282;16.436;99.370;2023-02-18T12:11:30;25.50;99.90
12602;DHT22;30282;16.436;99.370;2023-02-18T12:14:01;25.50;99.90
12602;DHT22;30282;16.436;99.370;2023-02-18T12:16:36;25.40;99.90
12602;DHT22;30282;16.436;99.370;2023-02-18T18:00:02;21.00;99.90
12602;DHT22;30282;16.436;99.370;2023-02-18T18:02:32;20.70;99.90
12602;DHT22;30282;16.436;99.370;2023-02-18T18:05:01;20.50;99.90
12602;DHT22;30282;16.436;99.370;2023-02-18T18:07:30;20.50;99.90
12602;DHT22;30282;16.436;99.370;2023-02-18T18:09:59;20.60;99.90
12602;DHT22;30282;16.436;99.370;2023-02-18T18:12:29;20.70;99.90
12602;DHT22;30282;16.436;99.370;2023-02-18T18:14:58;20.70;99.90
12602;DHT22;30282;16.436;99.370;2023-02-18T18:17:30;20.80;99.90
12602;DHT22;30282;16.436;99.370;2023-02-18T18:23:21;20.80;99.90
12602;DHT22;30282;16.436;99.370;2023-02-18T18:25:52;20.80;99.90
12602;DHT22;30282;16.436;99.370;2023-02-18T18:28:22;20.90;99.90
12602;DHT22;30282;16.436;99.370;2023-02-18T18:30:53;20.90;99.90
12602;DHT22;30282;16.436;99.370;2023-02-18T18:33:25;21.00;99.90
12602;DHT22;30282;16.436;99.370;2023-02-18T18:56:10;20.90;99.90
12602;DHT22;30282;16.436;99.370;2023-02-18T18:58:40;20.60;99.90
12602;DHT22;30282;16.436;99.370;2023-02-18T19:01:14;20.50;99.90
12602;DHT22;30282;16.436;99.370;2023-02-18T19:03:44;20.50;99.90
12602;DHT22;30282;16.436;99.370;2023-02-18T19:06:15;20.50;99.90
12602;DHT22;30282;16.436;99.370;2023-02-18T19:08:44;20.50;99.90
12602;DHT22;30282;16.436;99.370;2023-02-18T19:11:15;20.50;99.90
12602;DHT22;30282;16.436;99.370;2023-02-18T19:13:45;20.50;99.90
12602;DHT22;30282;16.436;99.370;2023-02-18T19:16:17;20.50;99.90
12602;DHT22;30282;16.436;99.370;2023-02-18T19:18:48;20.50;99.90
12602;DHT22;30282;16.436;99.370;2023-02-18T19:21:17;20.50;99.90
12602;DHT22;30282;16.436;99.370;2023-02-18T19:23:46;20.50;99.90
12602;DHT22;30282;16.436;99.370;2023-02-18T19:26:18;20.40;99.90
12602;DHT22;30282;16.436;99.370;2023-02-18T19:28:48;20.10;99.90
12602;DHT22;30282;16.436;99.370;2023-02-18T19:31:17;20.00;99.90
12602;DHT22;30282;16.436;99.370;2023-02-18T19:33:50;19.90;99.90
12602;DHT22;30282;16.436;99.370;2023-02-18T19:36:19;20.00;99.90
12602;DHT22;30282;16.436;99.370;2023-02-18T19:38:49;20.00;99.90
12602;DHT22;30282;16.436;99.370;2023-02-18T19:41:20;20.10;99.90
12602;DHT22;30282;16.436;99.370;2023-02-18T19:43:49;20.10;99.90
12602;DHT22;30282;16.436;99.370;2023-02-18T19:46:20;20.20;99.90
12602;DHT22;30282;16.436;99.370;2023-02-18T19:48:50;20.20;99.90
12602;DHT22;30282;16.436;99.370;2023-02-18T19:51:20;20.10;99.90
12602;DHT22;30282;16.436;99.370;2023-02-18T19:53:50;20.10;99.90
12602;DHT22;30282;16.436;99.370;2023-02-18T19:56:21;20.10;99.90
12602;DHT22;30282;16.436;99.370;2023-02-18T19:58:54;20.10;99.90
12602;DHT22;30282;16.436;99.370;2023-02-18T20:01:23;20.10;99.90
12602;DHT22;30282;16.436;99.370;2023-02-18T20:03:53;20.10;99.90
12602;DHT22;30282;16.436;99.370;2023-02-18T20:06:22;20.10;99.90
12602;DHT22;30282;16.436;99.370;2023-02-18T20:08:51;20.10;99.90
12602;DHT22;30282;16.436;99.370;2023-02-18T20:11:22;19.80;99.90
12602;DHT22;30282;16.436;99.370;2023-02-18T20:13:51;19.70;99.90
12602;DHT22;30282;16.436;99.370;2023-02-18T20:16:20;19.60;99.90
12602;DHT22;30282;16.436;99.370;2023-02-18T20:18:50;19.60;99.90
12602;DHT22;30282;16.436;99.370;2023-02-18T20:21:19;19.70;99.90
12602;DHT22;30282;16.436;99.370;2023-02-18T20:23:52;19.70;99.90
12602;DHT22;30282;16.436;99.370;2023-02-18T20:26:23;19.70;99.90
12602;DHT22;30282;16.436;99.370;2023-02-18T20:28:53;19.60;99.90
12602;DHT22;30282;16.436;99.370;2023-02-18T20:31:22;19.60;99.90
12602;DHT22;30282;16.436;99.370;2023-02-18T20:33:55;19.60;99.90
12602;DHT22;30282;16.436;99.370;2023-02-18T20:36:25;19.70;99.90
12602;DHT22;30282;16.436;99.370;2023-02-18T20:38:54;19.70;99.90
12602;DHT22;30282;16.436;99.370;2023-02-18T20:41:25;19.70;99.90
12602;DHT22;30282;16.436;99.370;2023-02-18T20:43:58;19.70;99.90
12602;DHT22;30282;16.436;99.370;2023-02-18T20:46:27;19.60;99.90
12602;DHT22;30282;16.436;99.370;2023-02-18T20:48:56;19.60;99.90
12602;DHT22;30282;16.436;99.370;2023-02-18T20:51:26;19.60;99.90
12602;DHT22;30282;16.436;99.370;2023-02-18T20:53:55;19.60;99.90
12602;DHT22;30282;16.436;99.370;2023-02-18T20:56:26;19.60;99.90
12602;DHT22;30282;16.436;99.370;2023-02-18T20:58:56;19.70;99.90
12602;DHT22;30282;16.436;99.370;2023-02-18T21:01:25;19.70;99.90
12602;DHT22;30282;16.436;99.370;2023-02-18T21:03:54;19.70;99.90
12602;DHT22;30282;16.436;99.370;2023-02-18T21:06:24;19.70;99.90
12602;DHT22;30282;16.436;99.370;2023-02-18T21:08:53;19.70;99.90
12602;DHT22;30282;16.436;99.370;2023-02-18T21:11:26;19.80;99.90
12602;DHT22;30282;16.436;99.370;2023-02-18T21:13:56;19.80;99.90
12602;DHT22;30282;16.436;99.370;2023-02-18T21:16:27;19.80;99.90
12602;DHT22;30282;16.436;99.370;2023-02-18T21:19:04;19.80;99.90
12602;DHT22;30282;16.436;99.370;2023-02-18T21:21:33;19.80;99.90
12602;DHT22;30282;16.436;99.370;2023-02-18T21:24:03;19.70;99.90
12602;DHT22;30282;16.436;99.370;2023-02-18T21:26:34;19.60;99.90
12602;DHT22;30282;16.436;99.370;2023-02-18T21:29:05;19.40;99.90
12602;DHT22;30282;16.436;99.370;2023-02-18T21:31:36;19.30;99.90
12602;DHT22;30282;16.436;99.370;2023-02-18T21:34:09;19.10;99.90
12602;DHT22;30282;16.436;99.370;2023-02-18T21:36:39;19.10;99.90
12602;DHT22;30282;16.436;99.370;2023-02-18T21:39:09;19.20;99.90
12602;DHT22;30282;16.436;99.370;2023-02-18T21:41:40;19.10;99.90
12602;DHT22;30282;16.436;99.370;2023-02-18T21:44:10;19.00;99.90
12602;DHT22;30282;16.436;99.370;2023-02-18T21:46:40;19.00;99.90
12602;DHT22;30282;16.436;99.370;2023-02-18T21:49:10;18.90;99.90